createdAt,value
2023-03-11T00:00:53.758Z,98761.72
2023-03-11T00:03:23.369Z,98758.19
2023-03-11T00:05:51.008Z,98755.88
2023-03-11T00:08:19.124Z,98766.41
2023-03-11T00:10:47.301Z,98768.50
2023-03-11T00:13:15.503Z,98751.91
2023-03-11T00:15:43.349Z,98753.97
2023-03-11T00:18:10.259Z,98754.38
2023-03-11T00:20:38.494Z,98756.69
2023-03-11T00:23:06.317Z,98754.78
2023-03-11T00:25:34.438Z,98756.47
2023-03-11T00:28:01.772Z,98748.19
2023-03-11T00:30:29.303Z,98743.69
2023-03-11T00:32:57.963Z,98746.84
2023-03-11T00:35:26.368Z,98752.78
2023-03-11T00:37:55.148Z,98757.06
2023-03-11T00:40:22.954Z,98749.97
2023-03-11T00:42:49.869Z,98748.19
2023-03-11T00:45:17.045Z,98751.66
2023-03-11T00:47:44.484Z,98751.34
2023-03-11T00:50:15.164Z,98747.25
2023-03-11T00:52:42.240Z,98749.56
2023-03-11T00:55:10.686Z,98749.75
2023-03-11T00:57:37.699Z,98747.38
2023-03-11T01:00:06.948Z,98751.75
2023-03-11T01:02:35.475Z,98759.28
2023-03-11T01:05:02.399Z,98759.13
2023-03-11T01:07:29.530Z,98757.06
2023-03-11T01:09:56.838Z,98739.69
2023-03-11T01:12:23.830Z,98753.78
2023-03-11T01:14:51.073Z,98758.72
2023-03-11T01:17:17.973Z,98749.28
2023-03-11T01:19:45.312Z,98750.13
2023-03-11T01:22:12.191Z,98754.31
2023-03-11T01:24:39.133Z,98755.59
2023-03-11T01:27:06.225Z,98749.97
2023-03-11T01:29:33.107Z,98750.69
2023-03-11T01:32:00.058Z,98748.81
2023-03-11T01:34:27.123Z,98745.75
2023-03-11T01:36:54.034Z,98754.28
2023-03-11T01:39:21.161Z,98748.81
2023-03-11T01:41:48.270Z,98749.75
2023-03-11T01:44:15.189Z,98752.78
2023-03-11T01:47:09.317Z,98747.31
2023-03-11T01:49:42.194Z,98754.91
2023-03-11T01:52:09.210Z,98754.44
2023-03-11T01:54:43.806Z,98751.47
2023-03-11T01:57:12.883Z,98752.28
2023-03-11T01:59:45.039Z,98746.09
2023-03-11T02:02:15.003Z,98747.78
2023-03-11T02:04:42.131Z,98753.09
2023-03-11T02:07:10.843Z,98750.38
2023-03-11T02:09:38.094Z,98750.59
2023-03-11T02:12:06.191Z,98752.06
2023-03-11T02:14:33.345Z,98746.66
2023-03-11T02:17:00.981Z,98756.25
2023-03-11T02:19:56.373Z,98758.44
2023-03-11T02:22:24.537Z,98752.06
2023-03-11T02:25:00.209Z,98749.44
2023-03-11T02:27:27.838Z,98749.56
2023-03-11T02:29:56.949Z,98744.25
2023-03-11T02:32:24.535Z,98753.69
2023-03-11T02:34:51.500Z,98750.97
2023-03-11T02:37:18.932Z,98752.00
2023-03-11T02:39:52.581Z,98731.81
2023-03-11T02:42:24.321Z,98744.19
2023-03-11T02:45:11.286Z,98741.75
2023-03-11T02:47:38.961Z,98751.34
2023-03-11T02:50:09.674Z,98754.91
2023-03-11T02:52:36.950Z,98746.31
2023-03-11T02:55:04.455Z,98747.56
2023-03-11T02:57:31.635Z,98752.88
2023-03-11T03:00:00.139Z,98753.16
2023-03-11T03:02:27.495Z,98740.22
2023-03-11T03:05:14.041Z,98753.53
2023-03-11T03:07:41.851Z,98756.78
2023-03-11T03:10:09.205Z,98751.97
2023-03-11T03:12:36.184Z,98750.88
2023-03-11T03:15:03.517Z,98743.88
2023-03-11T03:17:30.440Z,98742.31
2023-03-11T03:19:57.446Z,98748.44
2023-03-11T03:22:27.653Z,98742.31
2023-03-11T03:24:55.193Z,98754.41
2023-03-11T03:27:22.457Z,98751.25
2023-03-11T03:29:49.452Z,98741.00
2023-03-11T03:32:16.640Z,98738.50
2023-03-11T03:34:43.797Z,98748.16
2023-03-11T03:37:10.954Z,98750.16
2023-03-11T03:39:38.197Z,98752.22
2023-03-11T03:42:05.909Z,98745.28
2023-03-11T03:44:35.819Z,98753.59
2023-03-11T03:47:02.820Z,98744.72
2023-03-11T03:49:30.441Z,98744.56
2023-03-11T03:51:57.724Z,98736.34
2023-03-11T03:54:31.125Z,98737.28
2023-03-11T03:56:58.918Z,98738.97
2023-03-11T03:59:25.830Z,98734.50
2023-03-11T04:01:56.568Z,98732.91
2023-03-11T04:04:25.074Z,98727.69
2023-03-11T04:06:52.450Z,98727.03
2023-03-11T04:09:19.780Z,98734.13
2023-03-11T04:11:46.848Z,98734.78
2023-03-11T04:14:15.586Z,98730.22
2023-03-11T04:16:50.261Z,98715.88
2023-03-11T04:19:17.219Z,98718.63
2023-03-11T04:21:44.501Z,98728.63
2023-03-11T04:24:12.452Z,98720.06
2023-03-11T04:26:40.223Z,98724.16
2023-03-11T04:29:11.586Z,98713.91
2023-03-11T04:31:42.742Z,98705.53
2023-03-11T04:34:09.945Z,98709.81
2023-03-11T04:36:38.429Z,98705.53
2023-03-11T04:39:06.502Z,98698.25
2023-03-11T04:41:38.330Z,98694.53
2023-03-11T04:44:06.867Z,98695.03
2023-03-11T04:46:34.305Z,98691.56
2023-03-11T04:49:04.317Z,98694.88
2023-03-11T04:51:31.395Z,98693.66
2023-03-11T04:53:58.241Z,98689.47
2023-03-11T04:56:27.096Z,98691.81
2023-03-11T04:58:54.132Z,98688.53
2023-03-11T05:01:23.416Z,98686.59
2023-03-11T05:03:50.844Z,98698.25
2023-03-11T05:06:17.767Z,98689.97
2023-03-11T05:08:44.811Z,98689.97
2023-03-11T05:11:12.070Z,98680.53
2023-03-11T05:13:40.330Z,98681.09
2023-03-11T05:16:07.638Z,98675.19
2023-03-11T05:18:34.902Z,98677.50
2023-03-11T05:21:03.288Z,98683.09
2023-03-11T05:23:32.663Z,98677.88
2023-03-11T05:26:00.187Z,98679.06
2023-03-11T05:28:28.330Z,98684.28
2023-03-11T05:30:55.778Z,98674.31
2023-03-11T05:33:23.195Z,98678.88
2023-03-11T05:35:52.245Z,98674.94
2023-03-11T05:38:20.272Z,98675.53
2023-03-11T05:40:47.263Z,98674.94
2023-03-11T05:43:14.215Z,98673.06
2023-03-11T05:45:44.052Z,98671.00
2023-03-11T05:48:11.296Z,98681.38
2023-03-11T05:50:38.707Z,98677.31
2023-03-11T05:53:06.106Z,98681.19
2023-03-11T05:55:33.006Z,98671.19
2023-03-11T05:58:00.504Z,98675.81
2023-03-11T06:00:29.753Z,98667.19
2023-03-11T06:02:59.330Z,98671.00
2023-03-11T06:05:26.822Z,98673.31
2023-03-11T06:07:55.522Z,98675.63
2023-03-11T06:10:23.282Z,98673.78
2023-03-11T06:12:50.539Z,98677.34
2023-03-11T06:15:30.056Z,98672.66
2023-03-11T06:17:56.978Z,98676.09
2023-03-11T06:20:24.635Z,98672.28
2023-03-11T06:22:52.203Z,98676.50
2023-03-11T06:25:22.230Z,98672.13
2023-03-11T06:27:51.216Z,98678.47
2023-03-11T06:30:19.443Z,98670.22
2023-03-11T06:32:55.404Z,98669.41
2023-03-11T06:35:22.407Z,98664.78
2023-03-11T06:37:49.339Z,98653.06
2023-03-11T06:40:17.233Z,98647.56
2023-03-11T06:42:46.359Z,98653.97
2023-03-11T06:45:13.881Z,98652.72
2023-03-11T06:47:42.435Z,98657.66
2023-03-11T06:50:10.344Z,98658.88
2023-03-11T06:52:37.395Z,98655.34
2023-03-11T06:55:08.195Z,98651.84
2023-03-11T06:57:36.736Z,98650.78
2023-03-11T07:00:07.963Z,98651.25
2023-03-11T07:02:36.120Z,98644.28
2023-03-11T07:05:03.751Z,98639.28
2023-03-11T07:07:31.397Z,98635.31
2023-03-11T07:10:00.378Z,98639.19
2023-03-11T07:12:27.393Z,98630.81
2023-03-11T07:14:55.503Z,98623.50
2023-03-11T07:17:22.865Z,98628.53
2023-03-11T07:19:52.216Z,98629.56
2023-03-11T07:22:19.337Z,98609.19
2023-03-11T07:24:47.489Z,98624.53
2023-03-11T07:27:14.381Z,98602.69
2023-03-11T07:29:41.437Z,98612.22
2023-03-11T07:32:09.110Z,98610.13
2023-03-11T07:34:36.358Z,98613.97
2023-03-11T07:37:03.615Z,98604.69
2023-03-11T07:39:30.513Z,98600.09
2023-03-11T07:41:57.442Z,98591.72
2023-03-11T07:44:33.570Z,98575.19
2023-03-11T07:47:02.577Z,98576.91
2023-03-11T07:49:29.461Z,98559.97
2023-03-11T07:51:56.484Z,98568.31
2023-03-11T07:54:23.398Z,98571.00
2023-03-11T07:56:50.372Z,98559.75
2023-03-11T07:59:17.417Z,98561.22
2023-03-11T08:01:47.451Z,98545.53
2023-03-11T08:04:17.104Z,98558.31
2023-03-11T08:06:45.356Z,98539.91
2023-03-11T08:09:12.341Z,98543.25
2023-03-11T08:11:39.353Z,98534.78
2023-03-11T08:14:06.287Z,98538.94
2023-03-11T08:16:33.379Z,98536.72
2023-03-11T08:19:00.544Z,98532.84
2023-03-11T08:21:29.262Z,98531.16
2023-03-11T08:24:00.811Z,98511.00
2023-03-11T08:26:27.887Z,98523.94
2023-03-11T08:28:55.368Z,98515.19
2023-03-11T08:31:24.534Z,98519.81
2023-03-11T08:33:52.899Z,98507.53
2023-03-11T08:36:20.741Z,98504.16
2023-03-11T08:38:47.987Z,98507.31
2023-03-11T08:41:14.981Z,98493.59
2023-03-11T08:43:42.542Z,98494.22
2023-03-11T08:46:14.527Z,98503.25
2023-03-11T08:48:41.806Z,98502.00
2023-03-11T08:51:12.709Z,98491.97
2023-03-11T08:53:39.932Z,98494.59
2023-03-11T08:56:06.850Z,98505.47
2023-03-11T08:58:33.820Z,98501.09
2023-03-11T09:01:00.846Z,98516.59
2023-03-11T09:03:27.798Z,98506.56
2023-03-11T09:05:58.443Z,98501.25
2023-03-11T09:08:25.723Z,98493.66
2023-03-11T09:10:52.721Z,98490.63
2023-03-11T09:13:19.937Z,98486.91
2023-03-11T09:15:48.140Z,98482.66
2023-03-11T09:18:15.775Z,98480.91
2023-03-11T09:20:43.513Z,98479.31
2023-03-11T09:23:11.801Z,98468.00
2023-03-11T09:25:40.026Z,98470.78
2023-03-11T09:28:07.292Z,98470.81
2023-03-11T09:30:34.641Z,98465.59
2023-03-11T09:33:02.137Z,98454.41
2023-03-11T09:35:29.190Z,98470.78
2023-03-11T09:37:56.643Z,98455.34
2023-03-11T09:40:25.662Z,98464.59
2023-03-11T09:42:55.486Z,98447.84
2023-03-11T09:45:25.337Z,98450.03
2023-03-11T09:48:07.440Z,98455.28
2023-03-11T09:50:37.370Z,98444.13
2023-03-11T09:53:11.907Z,98450.25
2023-03-11T09:55:46.940Z,98440.06
2023-03-11T09:58:23.057Z,98445.81
2023-03-11T10:00:52.487Z,98435.94
2023-03-11T10:03:39.900Z,98436.31
2023-03-11T10:06:10.207Z,98423.00
2023-03-11T10:08:45.677Z,98413.50
2023-03-11T10:11:40.627Z,98408.94
2023-03-11T10:14:13.392Z,98402.22
2023-03-11T10:16:43.356Z,98410.31
2023-03-11T10:19:23.037Z,98407.47
2023-03-11T10:21:49.870Z,98393.22
2023-03-11T10:24:38.433Z,98391.06
2023-03-11T10:27:13.860Z,98372.41
2023-03-11T10:29:46.519Z,98360.41
2023-03-11T10:32:13.458Z,98362.19
2023-03-11T10:34:57.177Z,98357.09
2023-03-11T10:37:46.565Z,98340.22
2023-03-11T10:40:24.108Z,98339.47
2023-03-11T10:42:52.134Z,98354.78
2023-03-11T10:45:21.133Z,98350.88
2023-03-11T10:47:48.024Z,98336.19
2023-03-11T10:50:18.875Z,98329.06
2023-03-11T10:53:07.825Z,98328.94
2023-03-11T10:55:34.827Z,98326.19
2023-03-11T10:58:11.266Z,98338.16
2023-03-11T11:00:38.218Z,98320.34
2023-03-11T11:03:06.914Z,98294.81
2023-03-11T11:05:34.831Z,98314.44
2023-03-11T11:08:12.379Z,98308.16
2023-03-11T11:10:49.370Z,98300.88
2023-03-11T11:13:17.195Z,98300.06
2023-03-11T11:15:59.508Z,98290.56
2023-03-11T11:18:31.332Z,98291.03
2023-03-11T11:21:01.328Z,98275.59
2023-03-11T11:23:32.431Z,98270.09
2023-03-11T11:26:00.955Z,98277.50
2023-03-11T11:28:28.664Z,98266.56
2023-03-11T11:30:58.504Z,98271.66
2023-03-11T11:33:27.986Z,98257.97
2023-03-11T11:35:56.249Z,98266.53
2023-03-11T11:38:27.281Z,98268.22
2023-03-11T11:40:55.875Z,98259.66
2023-03-11T11:43:32.920Z,98253.81
2023-03-11T11:46:02.415Z,98244.53
2023-03-11T11:48:32.572Z,98237.53
2023-03-11T11:51:01.190Z,98247.16
2023-03-11T11:54:00.627Z,98254.88
2023-03-11T11:56:27.922Z,98250.25
2023-03-11T11:58:57.870Z,98248.22
2023-03-11T12:01:36.978Z,98238.94
2023-03-11T12:04:25.557Z,98245.25
2023-03-11T12:06:58.516Z,98253.47
2023-03-11T12:09:28.802Z,98240.63
2023-03-11T12:12:16.415Z,98250.03
2023-03-11T12:14:55.870Z,98245.47
2023-03-11T12:17:23.962Z,98235.03
2023-03-11T12:19:54.778Z,98209.69
2023-03-11T12:22:33.915Z,98222.75
2023-03-11T12:25:22.369Z,98228.25
2023-03-11T12:27:52.638Z,98211.84
2023-03-11T12:30:39.908Z,98230.84
2023-03-11T12:33:14.595Z,98224.16
2023-03-11T12:35:47.666Z,98214.31
2023-03-11T12:38:34.837Z,98201.81
2023-03-11T12:41:07.643Z,98203.09
2023-03-11T12:43:34.432Z,98205.72
2023-03-11T12:46:02.650Z,98205.72
2023-03-11T12:48:29.552Z,98202.78
2023-03-11T12:50:57.593Z,98201.13
2023-03-11T12:53:43.690Z,98187.16
2023-03-11T12:56:10.556Z,98186.91
2023-03-11T12:58:54.149Z,98191.31
2023-03-11T13:01:30.701Z,98187.50
2023-03-11T13:03:59.220Z,98179.25
2023-03-11T13:06:41.025Z,98180.47
2023-03-11T13:09:13.871Z,98182.94
2023-03-11T13:11:45.269Z,98181.50
2023-03-11T13:14:16.530Z,98174.69
2023-03-11T13:16:44.151Z,98177.91
2023-03-11T13:19:26.200Z,98154.06
2023-03-11T13:21:54.055Z,98155.88
2023-03-11T13:24:26.529Z,98150.50
2023-03-11T13:27:00.857Z,98145.16
2023-03-11T13:29:49.209Z,98135.78
2023-03-11T13:32:30.688Z,98140.53
2023-03-11T13:34:57.931Z,98127.94
2023-03-11T13:37:25.483Z,98132.66
2023-03-11T13:40:14.250Z,98127.88
2023-03-11T13:42:49.316Z,98126.53
2023-03-11T13:45:19.030Z,98118.50
2023-03-11T13:47:49.696Z,98110.88
2023-03-11T13:50:23.847Z,98109.81
2023-03-11T13:52:55.620Z,98098.38
2023-03-11T13:55:25.957Z,98101.25
2023-03-11T13:57:54.592Z,98106.94
2023-03-11T14:00:25.621Z,98104.81
2023-03-11T14:03:01.457Z,98098.38
2023-03-11T14:05:28.423Z,98093.97
2023-03-11T14:07:55.386Z,98094.28
2023-03-11T14:10:25.328Z,98089.31
2023-03-11T14:12:52.417Z,98104.50
2023-03-11T14:15:21.300Z,98091.84
2023-03-11T14:17:48.923Z,98097.78
2023-03-11T14:20:18.433Z,98083.41
2023-03-11T14:22:47.003Z,98077.22
2023-03-11T14:25:18.198Z,98067.19
2023-03-11T14:27:53.873Z,98067.91
2023-03-11T14:30:22.667Z,98061.56
2023-03-11T14:33:00.702Z,98053.69
2023-03-11T14:35:27.835Z,98046.66
2023-03-11T14:37:55.558Z,98050.69
2023-03-11T14:40:24.402Z,98041.16
2023-03-11T14:42:54.113Z,98043.94
2023-03-11T14:45:26.297Z,98041.03
2023-03-11T14:48:03.531Z,98042.53
2023-03-11T14:50:32.107Z,98043.50
2023-03-11T14:53:04.326Z,98051.34
2023-03-11T14:55:35.298Z,98039.91
2023-03-11T14:58:02.185Z,98033.16
2023-03-11T15:00:30.652Z,98045.44
2023-03-11T15:03:00.587Z,98025.84
2023-03-11T15:06:04.194Z,98022.69
2023-03-11T15:08:34.223Z,98021.03
2023-03-11T15:11:13.579Z,98018.41
2023-03-11T15:13:42.227Z,98025.06
2023-03-11T15:16:23.136Z,98031.66
2023-03-11T15:18:50.209Z,98029.34
2023-03-11T15:21:18.584Z,98012.84
2023-03-11T15:23:47.406Z,98017.50
2023-03-11T15:26:18.741Z,98010.34
2023-03-11T15:28:46.026Z,98015.00
2023-03-11T15:31:22.593Z,98011.13
2023-03-11T15:33:49.618Z,98017.19
2023-03-11T15:36:33.424Z,98003.13
2023-03-11T15:39:09.122Z,98005.34
2023-03-11T15:41:36.147Z,97986.63
2023-03-11T15:44:07.571Z,97985.66
2023-03-11T15:46:37.166Z,97994.09
2023-03-11T15:49:12.538Z,97963.47
2023-03-11T15:51:39.788Z,97978.66
2023-03-11T15:54:06.785Z,97962.94
2023-03-11T15:56:38.709Z,97974.13
2023-03-11T15:59:05.991Z,97958.00
2023-03-11T16:01:34.627Z,97973.44
2023-03-11T16:04:01.720Z,97967.66
2023-03-11T16:06:28.733Z,97957.59
2023-03-11T16:08:55.599Z,97961.88
2023-03-11T16:11:23.271Z,97961.16
2023-03-11T16:13:50.251Z,97942.13
2023-03-11T16:16:18.146Z,97952.59
2023-03-11T16:18:45.121Z,97952.22
2023-03-11T16:21:15.889Z,97934.41
2023-03-11T16:23:51.537Z,97943.94
2023-03-11T16:26:19.428Z,97934.84
2023-03-11T16:28:46.377Z,97942.31
2023-03-11T16:31:13.386Z,97929.34
2023-03-11T16:33:40.328Z,97917.72
2023-03-11T16:36:08.183Z,97913.72
2023-03-11T16:38:44.844Z,97899.78
2023-03-11T16:41:12.685Z,97895.50
2023-03-11T16:43:43.922Z,97896.19
2023-03-11T16:46:11.103Z,97882.66
2023-03-11T16:48:38.151Z,97891.50
2023-03-11T16:51:05.310Z,97889.44
2023-03-11T16:53:32.571Z,97877.44
2023-03-11T16:56:00.053Z,97878.97
2023-03-11T16:58:27.037Z,97868.75
2023-03-11T17:00:53.987Z,97857.97
2023-03-11T17:03:21.904Z,97860.31
2023-03-11T17:05:49.147Z,97859.78
2023-03-11T17:08:18.437Z,97857.56
2023-03-11T17:10:46.044Z,97841.41
2023-03-11T17:13:14.882Z,97847.63
2023-03-11T17:15:44.701Z,97848.97
2023-03-11T17:18:12.424Z,97829.25
2023-03-11T17:20:41.097Z,97835.44
2023-03-11T17:23:08.095Z,97828.41
2023-03-11T17:25:35.058Z,97816.41
2023-03-11T17:28:02.188Z,97820.84
2023-03-11T17:30:36.824Z,97810.59
2023-03-11T17:33:04.673Z,97804.38
2023-03-11T17:35:31.822Z,97799.53
2023-03-11T17:37:58.935Z,97786.69
2023-03-11T17:40:27.210Z,97789.44
2023-03-11T17:42:54.228Z,97785.16
2023-03-11T17:45:21.281Z,97778.09
2023-03-11T17:47:48.236Z,97759.47
2023-03-11T17:50:16.719Z,97758.91
2023-03-11T17:52:46.031Z,97752.97
2023-03-11T17:55:13.148Z,97737.38
2023-03-11T17:57:45.555Z,97744.94
2023-03-11T18:00:14.988Z,97738.88
2023-03-11T18:02:42.178Z,97750.88
2023-03-11T18:05:09.674Z,97741.44
2023-03-11T18:07:39.270Z,97734.13
2023-03-11T18:10:09.068Z,97726.69
2023-03-11T18:12:36.220Z,97735.22
2023-03-11T18:15:08.356Z,97740.03
2023-03-11T18:17:35.776Z,97732.88
2023-03-11T18:20:03.637Z,97723.69
2023-03-11T18:22:30.571Z,97728.13
2023-03-11T18:25:00.385Z,97724.94
2023-03-11T18:27:27.255Z,97720.50
2023-03-11T18:29:54.542Z,97723.53
2023-03-11T18:32:24.232Z,97719.38
2023-03-11T18:34:51.549Z,97723.13
2023-03-11T18:37:18.676Z,97718.41
2023-03-11T18:39:45.744Z,97717.41
2023-03-11T18:42:14.341Z,97714.63
2023-03-11T18:44:42.583Z,97706.19
2023-03-11T18:47:09.596Z,97694.03
2023-03-11T18:49:36.553Z,97682.56
2023-03-11T18:52:03.462Z,97678.81
2023-03-11T18:54:30.581Z,97660.44
2023-03-11T18:56:57.779Z,97663.88
2023-03-11T18:59:27.154Z,97649.56
2023-03-11T19:01:54.090Z,97659.09
2023-03-11T19:04:21.042Z,97648.56
2023-03-11T19:06:50.599Z,97654.66
2023-03-11T19:09:18.646Z,97639.72
2023-03-11T19:11:45.931Z,97633.47
2023-03-11T19:14:13.336Z,97643.41
2023-03-11T19:16:40.463Z,97624.06
2023-03-11T19:19:08.077Z,97613.84
2023-03-11T19:21:36.718Z,97615.56
2023-03-11T19:24:08.582Z,97620.81
2023-03-11T19:26:44.782Z,97617.91
2023-03-11T19:29:13.049Z,97610.47
2023-03-11T19:31:40.129Z,97604.59
2023-03-11T19:34:11.986Z,97592.44
2023-03-11T19:36:39.679Z,97570.81
2023-03-11T19:39:07.060Z,97565.88
2023-03-11T19:41:34.587Z,97566.91
2023-03-11T19:44:04.390Z,97563.69
2023-03-11T19:46:34.997Z,97559.88
2023-03-11T19:49:02.764Z,97541.31
2023-03-11T19:51:38.745Z,97529.31
2023-03-11T19:54:10.577Z,97528.78
2023-03-11T19:56:37.976Z,97525.50
2023-03-11T19:59:04.909Z,97525.19
2023-03-11T20:01:32.062Z,97535.41
2023-03-11T20:03:59.074Z,97525.09
2023-03-11T20:06:26.330Z,97526.06
2023-03-11T20:08:53.375Z,97515.91
2023-03-11T20:11:20.362Z,97514.28
2023-03-11T20:13:48.749Z,97498.22
2023-03-11T20:16:18.726Z,97488.34
2023-03-11T20:18:49.105Z,97490.16
2023-03-11T20:21:16.072Z,97483.91
2023-03-11T20:23:43.024Z,97478.50
2023-03-11T20:26:11.761Z,97473.13
2023-03-11T20:28:38.877Z,97468.22
2023-03-11T20:31:09.235Z,97465.75
2023-03-11T20:33:37.603Z,97461.44
2023-03-11T20:36:05.506Z,97448.00
2023-03-11T20:38:32.822Z,97451.28
2023-03-11T20:40:59.748Z,97432.28
2023-03-11T20:43:26.888Z,97427.69
2023-03-11T20:45:53.961Z,97414.53
2023-03-11T20:48:20.921Z,97424.53
2023-03-11T20:50:48.754Z,97410.78
2023-03-11T20:53:16.141Z,97404.06
2023-03-11T20:55:43.182Z,97398.81
2023-03-11T20:58:10.622Z,97394.19
2023-03-11T21:00:37.900Z,97396.81
2023-03-11T21:03:05.095Z,97390.09
2023-03-11T21:05:35.650Z,97381.25
2023-03-11T21:08:03.136Z,97377.78
2023-03-11T21:10:30.282Z,97367.25
2023-03-11T21:12:57.222Z,97362.03
2023-03-11T21:15:26.367Z,97336.25
2023-03-11T21:17:53.742Z,97334.13
2023-03-11T21:20:20.917Z,97336.56
2023-03-11T21:22:47.929Z,97330.00
2023-03-11T21:25:14.947Z,97314.69
2023-03-11T21:27:41.917Z,97313.06
2023-03-11T21:30:09.165Z,97306.16
2023-03-11T21:32:36.455Z,97298.59
2023-03-11T21:35:10.315Z,97301.91
2023-03-11T21:37:37.666Z,97289.41
2023-03-11T21:40:07.779Z,97278.88
2023-03-11T21:42:35.072Z,97269.34
2023-03-11T21:45:02.254Z,97271.66
2023-03-11T21:47:30.274Z,97257.34
2023-03-11T21:49:57.300Z,97250.41
2023-03-11T21:52:24.356Z,97251.59
2023-03-11T21:54:51.632Z,97247.97
2023-03-11T21:57:18.702Z,97245.34
2023-03-11T21:59:45.823Z,97240.53
2023-03-11T22:02:14.762Z,97243.66
2023-03-11T22:04:42.517Z,97222.94
2023-03-11T22:07:10.445Z,97218.16
2023-03-11T22:09:37.616Z,97220.63
2023-03-11T22:12:04.827Z,97207.94
2023-03-11T22:14:31.962Z,97208.25
2023-03-11T22:16:59.061Z,97217.16
2023-03-11T22:19:26.170Z,97200.84
2023-03-11T22:21:53.302Z,97197.41
2023-03-11T22:24:20.351Z,97189.31
2023-03-11T22:26:47.288Z,97193.44
2023-03-11T22:29:14.309Z,97185.03
2023-03-11T22:31:42.239Z,97176.47
2023-03-11T22:34:13.903Z,97176.28
2023-03-11T22:36:41.637Z,97178.41
2023-03-11T22:39:09.004Z,97177.44
2023-03-11T22:47:00.742Z,97158.13
2023-03-11T22:49:37.056Z,97153.69
2023-03-11T22:52:04.103Z,97150.72
2023-03-11T22:54:31.770Z,97147.75
2023-03-11T22:56:59.177Z,97148.41
2023-03-11T22:59:31.817Z,97147.06
2023-03-11T23:01:59.310Z,97134.53
2023-03-11T23:04:26.668Z,97132.56
2023-03-11T23:06:54.701Z,97125.09
2023-03-11T23:09:22.436Z,97123.66
2023-03-11T23:11:50.785Z,97120.84
2023-03-11T23:14:19.593Z,97110.59
2023-03-11T23:16:48.111Z,97092.97
2023-03-11T23:19:18.857Z,97094.63
2023-03-11T23:21:46.002Z,97085.53
2023-03-11T23:24:15.169Z,97079.28
2023-03-11T23:26:42.253Z,97067.75
2023-03-11T23:29:09.469Z,97069.50
2023-03-11T23:31:37.118Z,97061.59
2023-03-11T23:34:07.214Z,97052.53
2023-03-11T23:36:34.397Z,97052.81
2023-03-11T23:39:01.446Z,97048.19
2023-03-11T23:41:33.864Z,97042.72
2023-03-11T23:44:01.180Z,97040.56
2023-03-11T23:46:28.296Z,97023.31
2023-03-11T23:48:55.388Z,97027.50
2023-03-11T23:51:22.577Z,97017.41
2023-03-11T23:53:49.494Z,97012.25
2023-03-11T23:56:18.361Z,97011.25
2023-03-11T23:58:46.586Z,97000.16
